sensor_id;sensor_type;location;lat;lon;timestamp;P1;durP1;ratioP1;P2;durP2;ratioP2
39994;SDS011;25686;51.908;10.418;2023-05-10T00:00:43;7.57;;;3.35;;
39994;SDS011;25686;51.908;10.418;2023-05-10T00:02:44;6.03;;;3.00;;
39994;SDS011;25686;51.908;10.418;2023-05-10T00:04:45;6.35;;;3.65;;
39994;SDS011;25686;51.908;10.418;2023-05-10T00:06:46;7.75;;;3.45;;
39994;SDS011;25686;51.908;10.418;2023-05-10T00:08:47;4.28;;;3.30;;
39994;SDS011;25686;51.908;10.418;2023-05-10T00:10:48;6.18;;;3.55;;
39994;SDS011;25686;51.908;10.418;2023-05-10T00:12:49;7.05;;;3.33;;
39994;SDS011;25686;51.908;10.418;2023-05-10T00:14:50;9.15;;;3.22;;
39994;SDS011;25686;51.908;10.418;2023-05-10T00:16:51;6.57;;;3.08;;
39994;SDS011;25686;51.908;10.418;2023-05-10T00:18:52;6.88;;;3.35;;
39994;SDS011;25686;51.908;10.418;2023-05-10T00:20:53;7.63;;;3.58;;
39994;SDS011;25686;51.908;10.418;2023-05-10T00:22:54;4.95;;;3.00;;
39994;SDS011;25686;51.908;10.418;2023-05-10T00:24:55;5.53;;;3.08;;
39994;SDS011;25686;51.908;10.418;2023-05-10T00:26:56;4.85;;;3.17;;
39994;SDS011;25686;51.908;10.418;2023-05-10T00:28:57;5.53;;;3.20;;
39994;SDS011;25686;51.908;10.418;2023-05-10T00:30:58;7.10;;;3.00;;
39994;SDS011;25686;51.908;10.418;2023-05-10T00:32:59;6.93;;;3.20;;
39994;SDS011;25686;51.908;10.418;2023-05-10T00:35:00;4.78;;;3.17;;
39994;SDS011;25686;51.908;10.418;2023-05-10T00:37:01;5.25;;;2.88;;
39994;SDS011;25686;51.908;10.418;2023-05-10T00:39:02;6.32;;;3.00;;
39994;SDS011;25686;51.908;10.418;2023-05-10T00:41:03;7.25;;;3.60;;
39994;SDS011;25686;51.908;10.418;2023-05-10T00:43:04;5.05;;;3.35;;
39994;SDS011;25686;51.908;10.418;2023-05-10T00:45:06;3.40;;;3.10;;
39994;SDS011;25686;51.908;10.418;2023-05-10T00:47:07;5.05;;;3.45;;
39994;SDS011;25686;51.908;10.418;2023-05-10T00:49:08;8.93;;;3.42;;
39994;SDS011;25686;51.908;10.418;2023-05-10T00:51:09;4.57;;;3.30;;
39994;SDS011;25686;51.908;10.418;2023-05-10T00:53:10;5.13;;;3.13;;
39994;SDS011;25686;51.908;10.418;2023-05-10T00:55:11;4.70;;;3.20;;
39994;SDS011;25686;51.908;10.418;2023-05-10T00:57:12;6.22;;;3.03;;
39994;SDS011;25686;51.908;10.418;2023-05-10T00:59:14;10.25;;;3.20;;
39994;SDS011;25686;51.908;10.418;2023-05-10T01:01:16;6.78;;;3.42;;
39994;SDS011;25686;51.908;10.418;2023-05-10T01:03:17;6.70;;;3.20;;
39994;SDS011;25686;51.908;10.418;2023-05-10T01:05:18;4.22;;;3.20;;
39994;SDS011;25686;51.908;10.418;2023-05-10T01:07:19;5.65;;;3.13;;
39994;SDS011;25686;51.908;10.418;2023-05-10T01:09:21;4.38;;;3.20;;
39994;SDS011;25686;51.908;10.418;2023-05-10T01:11:22;4.40;;;3.45;;
39994;SDS011;25686;51.908;10.418;2023-05-10T01:13:27;4.05;;;3.42;;
39994;SDS011;25686;51.908;10.418;2023-05-10T01:15:29;6.32;;;3.17;;
39994;SDS011;25686;51.908;10.418;2023-05-10T01:17:31;4.28;;;3.22;;
39994;SDS011;25686;51.908;10.418;2023-05-10T01:19:34;6.43;;;3.28;;
39994;SDS011;25686;51.908;10.418;2023-05-10T01:22:22;6.40;;;3.10;;
39994;SDS011;25686;51.908;10.418;2023-05-10T01:33:08;4.65;;;3.47;;
39994;SDS011;25686;51.908;10.418;2023-05-10T01:35:23;6.40;;;3.15;;
39994;SDS011;25686;51.908;10.418;2023-05-10T01:37:36;5.47;;;3.30;;
39994;SDS011;25686;51.908;10.418;2023-05-10T01:46:14;6.32;;;3.50;;
39994;SDS011;25686;51.908;10.418;2023-05-10T01:48:16;7.13;;;3.10;;
39994;SDS011;25686;51.908;10.418;2023-05-10T01:50:19;6.32;;;3.10;;
39994;SDS011;25686;51.908;10.418;2023-05-10T01:52:25;5.40;;;3.10;;
39994;SDS011;25686;51.908;10.418;2023-05-10T01:54:27;6.07;;;3.03;;
39994;SDS011;25686;51.908;10.418;2023-05-10T01:56:30;3.83;;;2.70;;
39994;SDS011;25686;51.908;10.418;2023-05-10T01:58:32;8.82;;;3.65;;
39994;SDS011;25686;51.908;10.418;2023-05-10T02:00:35;4.45;;;3.10;;
39994;SDS011;25686;51.908;10.418;2023-05-10T02:02:41;4.45;;;3.38;;
39994;SDS011;25686;51.908;10.418;2023-05-10T02:04:45;6.30;;;3.00;;
39994;SDS011;25686;51.908;10.418;2023-05-10T02:06:46;5.78;;;3.33;;
39994;SDS011;25686;51.908;10.418;2023-05-10T02:08:48;5.57;;;2.90;;
39994;SDS011;25686;51.908;10.418;2023-05-10T02:10:50;4.75;;;3.00;;
39994;SDS011;25686;51.908;10.418;2023-05-10T02:12:52;4.57;;;3.47;;
39994;SDS011;25686;51.908;10.418;2023-05-10T02:14:54;7.65;;;3.10;;
39994;SDS011;25686;51.908;10.418;2023-05-10T02:16:55;4.22;;;3.30;;
39994;SDS011;25686;51.908;10.418;2023-05-10T02:18:57;6.10;;;3.08;;
39994;SDS011;25686;51.908;10.418;2023-05-10T02:20:59;6.38;;;3.28;;
39994;SDS011;25686;51.908;10.418;2023-05-10T02:23:02;5.38;;;3.30;;
39994;SDS011;25686;51.908;10.418;2023-05-10T02:25:04;5.80;;;3.17;;
39994;SDS011;25686;51.908;10.418;2023-05-10T02:27:05;5.18;;;3.25;;
39994;SDS011;25686;51.908;10.418;2023-05-10T02:29:06;4.00;;;3.13;;
39994;SDS011;25686;51.908;10.418;2023-05-10T02:31:08;4.63;;;3.08;;
39994;SDS011;25686;51.908;10.418;2023-05-10T02:33:10;4.68;;;3.38;;
39994;SDS011;25686;51.908;10.418;2023-05-10T02:35:11;6.90;;;3.30;;
39994;SDS011;25686;51.908;10.418;2023-05-10T02:37:15;6.05;;;3.22;;
39994;SDS011;25686;51.908;10.418;2023-05-10T02:39:18;6.00;;;2.92;;
39994;SDS011;25686;51.908;10.418;2023-05-10T02:41:20;4.10;;;3.45;;
39994;SDS011;25686;51.908;10.418;2023-05-10T02:43:22;8.38;;;3.22;;
39994;SDS011;25686;51.908;10.418;2023-05-10T02:45:25;7.00;;;3.38;;
39994;SDS011;25686;51.908;10.418;2023-05-10T02:47:28;7.00;;;3.20;;
39994;SDS011;25686;51.908;10.418;2023-05-10T02:49:29;4.78;;;3.00;;
39994;SDS011;25686;51.908;10.418;2023-05-10T02:51:31;4.90;;;2.83;;
39994;SDS011;25686;51.908;10.418;2023-05-10T02:53:34;4.25;;;3.33;;
39994;SDS011;25686;51.908;10.418;2023-05-10T02:55:36;4.07;;;2.95;;
39994;SDS011;25686;51.908;10.418;2023-05-10T02:57:41;6.25;;;3.15;;
39994;SDS011;25686;51.908;10.418;2023-05-10T02:59:42;6.35;;;2.95;;
39994;SDS011;25686;51.908;10.418;2023-05-10T03:01:44;4.68;;;3.30;;
39994;SDS011;25686;51.908;10.418;2023-05-10T03:03:45;4.07;;;2.88;;
39994;SDS011;25686;51.908;10.418;2023-05-10T03:05:46;7.80;;;3.05;;
39994;SDS011;25686;51.908;10.418;2023-05-10T03:07:48;5.22;;;3.10;;
39994;SDS011;25686;51.908;10.418;2023-05-10T03:09:49;4.03;;;3.08;;
39994;SDS011;25686;51.908;10.418;2023-05-10T03:16:16;7.22;;;3.47;;
39994;SDS011;25686;51.908;10.418;2023-05-10T03:18:26;5.97;;;3.17;;
39994;SDS011;25686;51.908;10.418;2023-05-10T03:20:29;8.82;;;3.35;;
39994;SDS011;25686;51.908;10.418;2023-05-10T03:22:32;5.68;;;3.22;;
39994;SDS011;25686;51.908;10.418;2023-05-10T03:24:35;6.07;;;3.05;;
39994;SDS011;25686;51.908;10.418;2023-05-10T03:26:36;5.55;;;3.40;;
39994;SDS011;25686;51.908;10.418;2023-05-10T03:28:37;6.13;;;3.22;;
39994;SDS011;25686;51.908;10.418;2023-05-10T03:30:40;4.82;;;3.63;;
39994;SDS011;25686;51.908;10.418;2023-05-10T03:32:41;7.53;;;3.30;;
39994;SDS011;25686;51.908;10.418;2023-05-10T03:34:42;4.88;;;3.00;;
39994;SDS011;25686;51.908;10.418;2023-05-10T03:36:43;5.32;;;3.40;;
39994;SDS011;25686;51.908;10.418;2023-05-10T03:38:44;10.75;;;3.55;;
39994;SDS011;25686;51.908;10.418;2023-05-10T03:40:45;4.88;;;3.50;;
39994;SDS011;25686;51.908;10.418;2023-05-10T03:42:46;4.28;;;3.08;;
39994;SDS011;25686;51.908;10.418;2023-05-10T03:44:47;6.35;;;3.33;;
39994;SDS011;25686;51.908;10.418;2023-05-10T03:46:49;3.70;;;3.30;;
39994;SDS011;25686;51.908;10.418;2023-05-10T03:48:50;7.18;;;3.50;;
39994;SDS011;25686;51.908;10.418;2023-05-10T03:50:51;4.70;;;3.55;;
39994;SDS011;25686;51.908;10.418;2023-05-10T03:52:52;12.93;;;3.78;;
39994;SDS011;25686;51.908;10.418;2023-05-10T03:54:53;7.00;;;3.67;;
39994;SDS011;25686;51.908;10.418;2023-05-10T03:56:54;5.03;;;3.85;;
39994;SDS011;25686;51.908;10.418;2023-05-10T03:58:55;5.32;;;3.60;;
39994;SDS011;25686;51.908;10.418;2023-05-10T04:00:56;5.18;;;3.38;;
39994;SDS011;25686;51.908;10.418;2023-05-10T04:02:57;7.65;;;3.55;;
39994;SDS011;25686;51.908;10.418;2023-05-10T04:04:58;5.90;;;3.83;;
39994;SDS011;25686;51.908;10.418;2023-05-10T04:06:59;6.55;;;3.65;;
39994;SDS011;25686;51.908;10.418;2023-05-10T04:09:00;6.15;;;3.80;;
39994;SDS011;25686;51.908;10.418;2023-05-10T04:11:04;5.53;;;3.67;;
39994;SDS011;25686;51.908;10.418;2023-05-10T04:13:06;5.03;;;3.90;;
39994;SDS011;25686;51.908;10.418;2023-05-10T04:15:07;5.07;;;3.90;;
39994;SDS011;25686;51.908;10.418;2023-05-10T04:17:08;5.57;;;3.60;;
39994;SDS011;25686;51.908;10.418;2023-05-10T04:19:10;5.50;;;3.60;;
39994;SDS011;25686;51.908;10.418;2023-05-10T04:21:14;7.28;;;4.07;;
39994;SDS011;25686;51.908;10.418;2023-05-10T04:23:15;4.30;;;3.55;;
39994;SDS011;25686;51.908;10.418;2023-05-10T04:25:16;6.38;;;4.35;;
39994;SDS011;25686;51.908;10.418;2023-05-10T04:27:17;6.05;;;3.88;;
39994;SDS011;25686;51.908;10.418;2023-05-10T04:29:18;6.20;;;3.85;;
39994;SDS011;25686;51.908;10.418;2023-05-10T04:31:19;5.97;;;4.18;;
39994;SDS011;25686;51.908;10.418;2023-05-10T04:33:20;5.85;;;4.30;;
39994;SDS011;25686;51.908;10.418;2023-05-10T04:35:21;5.65;;;3.97;;
39994;SDS011;25686;51.908;10.418;2023-05-10T04:37:22;4.75;;;3.78;;
39994;SDS011;25686;51.908;10.418;2023-05-10T04:39:23;5.57;;;3.83;;
39994;SDS011;25686;51.908;10.418;2023-05-10T04:41:24;4.32;;;3.92;;
39994;SDS011;25686;51.908;10.418;2023-05-10T04:43:25;5.78;;;4.20;;
39994;SDS011;25686;51.908;10.418;2023-05-10T04:45:26;5.80;;;3.63;;
39994;SDS011;25686;51.908;10.418;2023-05-10T04:47:27;4.85;;;3.83;;
39994;SDS011;25686;51.908;10.418;2023-05-10T04:49:29;4.40;;;3.83;;
39994;SDS011;25686;51.908;10.418;2023-05-10T04:51:30;5.20;;;3.72;;
39994;SDS011;25686;51.908;10.418;2023-05-10T04:53:32;4.65;;;3.75;;
39994;SDS011;25686;51.908;10.418;2023-05-10T04:55:33;6.13;;;3.35;;
39994;SDS011;25686;51.908;10.418;2023-05-10T04:57:34;5.35;;;3.53;;
39994;SDS011;25686;51.908;10.418;2023-05-10T04:59:35;4.47;;;4.05;;
39994;SDS011;25686;51.908;10.418;2023-05-10T05:01:37;5.75;;;4.03;;
39994;SDS011;25686;51.908;10.418;2023-05-10T05:03:38;5.43;;;4.10;;
39994;SDS011;25686;51.908;10.418;2023-05-10T05:05:39;4.85;;;4.18;;
39994;SDS011;25686;51.908;10.418;2023-05-10T05:07:40;5.00;;;3.85;;
39994;SDS011;25686;51.908;10.418;2023-05-10T05:09:41;4.55;;;3.80;;
39994;SDS011;25686;51.908;10.418;2023-05-10T05:11:42;4.53;;;3.65;;
39994;SDS011;25686;51.908;10.418;2023-05-10T05:13:43;5.18;;;3.50;;
39994;SDS011;25686;51.908;10.418;2023-05-10T05:15:44;6.82;;;4.10;;
39994;SDS011;25686;51.908;10.418;2023-05-10T05:17:45;8.82;;;3.97;;
39994;SDS011;25686;51.908;10.418;2023-05-10T05:19:46;5.05;;;3.63;;
39994;SDS011;25686;51.908;10.418;2023-05-10T05:21:47;4.72;;;4.03;;
39994;SDS011;25686;51.908;10.418;2023-05-10T05:23:48;8.07;;;3.88;;
39994;SDS011;25686;51.908;10.418;2023-05-10T05:25:49;7.32;;;4.20;;
39994;SDS011;25686;51.908;10.418;2023-05-10T05:27:50;5.10;;;4.40;;
39994;SDS011;25686;51.908;10.418;2023-05-10T05:29:54;7.18;;;4.72;;
39994;SDS011;25686;51.908;10.418;2023-05-10T05:31:55;7.22;;;4.97;;
39994;SDS011;25686;51.908;10.418;2023-05-10T05:33:56;6.80;;;4.53;;
39994;SDS011;25686;51.908;10.418;2023-05-10T05:35:57;7.50;;;4.43;;
39994;SDS011;25686;51.908;10.418;2023-05-10T05:37:58;7.03;;;4.90;;
39994;SDS011;25686;51.908;10.418;2023-05-10T05:39:59;7.47;;;5.05;;
39994;SDS011;25686;51.908;10.418;2023-05-10T05:42:01;4.72;;;4.22;;
39994;SDS011;25686;51.908;10.418;2023-05-10T05:44:02;6.53;;;4.45;;
39994;SDS011;25686;51.908;10.418;2023-05-10T05:46:03;5.63;;;4.40;;
39994;SDS011;25686;51.908;10.418;2023-05-10T05:48:04;7.13;;;4.68;;
39994;SDS011;25686;51.908;10.418;2023-05-10T05:50:05;5.75;;;4.70;;
39994;SDS011;25686;51.908;10.418;2023-05-10T05:52:06;6.68;;;4.07;;
39994;SDS011;25686;51.908;10.418;2023-05-10T05:54:07;5.97;;;4.07;;
39994;SDS011;25686;51.908;10.418;2023-05-10T05:56:08;5.07;;;4.20;;
39994;SDS011;25686;51.908;10.418;2023-05-10T05:58:09;5.25;;;4.50;;
39994;SDS011;25686;51.908;10.418;2023-05-10T06:00:10;6.95;;;4.60;;
39994;SDS011;25686;51.908;10.418;2023-05-10T06:02:11;6.35;;;4.88;;
39994;SDS011;25686;51.908;10.418;2023-05-10T06:04:12;5.45;;;4.57;;
39994;SDS011;25686;51.908;10.418;2023-05-10T06:06:14;5.65;;;4.90;;
39994;SDS011;25686;51.908;10.418;2023-05-10T06:08:15;6.63;;;4.68;;
39994;SDS011;25686;51.908;10.418;2023-05-10T06:10:16;6.40;;;4.85;;
39994;SDS011;25686;51.908;10.418;2023-05-10T06:12:17;6.93;;;4.43;;
39994;SDS011;25686;51.908;10.418;2023-05-10T06:14:19;5.22;;;4.72;;
39994;SDS011;25686;51.908;10.418;2023-05-10T06:16:20;5.35;;;4.68;;
39994;SDS011;25686;51.908;10.418;2023-05-10T06:18:22;5.43;;;4.93;;
39994;SDS011;25686;51.908;10.418;2023-05-10T06:20:23;5.90;;;5.07;;
39994;SDS011;25686;51.908;10.418;2023-05-10T06:22:24;5.22;;;4.65;;
39994;SDS011;25686;51.908;10.418;2023-05-10T06:24:25;5.20;;;4.45;;
39994;SDS011;25686;51.908;10.418;2023-05-10T06:26:27;4.30;;;3.90;;
39994;SDS011;25686;51.908;10.418;2023-05-10T06:28:28;6.07;;;4.32;;
39994;SDS011;25686;51.908;10.418;2023-05-10T06:30:30;5.07;;;4.22;;
39994;SDS011;25686;51.908;10.418;2023-05-10T06:32:31;4.30;;;3.90;;
39994;SDS011;25686;51.908;10.418;2023-05-10T06:34:32;7.43;;;4.68;;
39994;SDS011;25686;51.908;10.418;2023-05-10T06:36:33;4.68;;;3.85;;
39994;SDS011;25686;51.908;10.418;2023-05-10T06:38:33;6.30;;;3.67;;
39994;SDS011;25686;51.908;10.418;2023-05-10T06:40:34;6.90;;;3.30;;
39994;SDS011;25686;51.908;10.418;2023-05-10T06:42:35;3.88;;;3.40;;
39994;SDS011;25686;51.908;10.418;2023-05-10T06:44:36;4.32;;;3.22;;
39994;SDS011;25686;51.908;10.418;2023-05-10T06:46:37;3.80;;;3.22;;
39994;SDS011;25686;51.908;10.418;2023-05-10T06:48:38;3.20;;;2.90;;
39994;SDS011;25686;51.908;10.418;2023-05-10T06:50:39;3.75;;;3.30;;
39994;SDS011;25686;51.908;10.418;2023-05-10T06:52:40;3.13;;;2.80;;
39994;SDS011;25686;51.908;10.418;2023-05-10T06:54:42;4.13;;;2.85;;
39994;SDS011;25686;51.908;10.418;2023-05-10T06:56:44;4.55;;;2.83;;
39994;SDS011;25686;51.908;10.418;2023-05-10T06:58:45;3.30;;;3.00;;
39994;SDS011;25686;51.908;10.418;2023-05-10T07:00:46;3.50;;;2.80;;
39994;SDS011;25686;51.908;10.418;2023-05-10T07:02:47;3.88;;;2.60;;
39994;SDS011;25686;51.908;10.418;2023-05-10T07:04:48;3.92;;;2.30;;
39994;SDS011;25686;51.908;10.418;2023-05-10T07:06:49;2.70;;;2.40;;
39994;SDS011;25686;51.908;10.418;2023-05-10T07:08:50;2.47;;;2.28;;
39994;SDS011;25686;51.908;10.418;2023-05-10T07:10:51;2.45;;;2.25;;
39994;SDS011;25686;51.908;10.418;2023-05-10T07:12:52;2.50;;;2.30;;
39994;SDS011;25686;51.908;10.418;2023-05-10T07:14:53;2.33;;;2.13;;
39994;SDS011;25686;51.908;10.418;2023-05-10T07:16:54;2.05;;;1.92;;
39994;SDS011;25686;51.908;10.418;2023-05-10T07:18:55;2.00;;;1.80;;
39994;SDS011;25686;51.908;10.418;2023-05-10T07:20:57;2.30;;;2.10;;
39994;SDS011;25686;51.908;10.418;2023-05-10T07:22:58;2.85;;;1.98;;
39994;SDS011;25686;51.908;10.418;2023-05-10T07:24:59;2.13;;;2.00;;
39994;SDS011;25686;51.908;10.418;2023-05-10T07:27:00;2.28;;;2.08;;
39994;SDS011;25686;51.908;10.418;2023-05-10T07:29:00;2.13;;;2.00;;
39994;SDS011;25686;51.908;10.418;2023-05-10T07:31:02;2.40;;;2.20;;
39994;SDS011;25686;51.908;10.418;2023-05-10T07:33:03;2.63;;;1.83;;
39994;SDS011;25686;51.908;10.418;2023-05-10T07:35:04;2.38;;;2.10;;
39994;SDS011;25686;51.908;10.418;2023-05-10T07:37:06;2.40;;;2.20;;
39994;SDS011;25686;51.908;10.418;2023-05-10T07:39:07;2.30;;;2.10;;
39994;SDS011;25686;51.908;10.418;2023-05-10T07:41:09;3.05;;;2.20;;
39994;SDS011;25686;51.908;10.418;2023-05-10T07:43:10;2.17;;;1.98;;
39994;SDS011;25686;51.908;10.418;2023-05-10T07:45:11;2.10;;;1.90;;
39994;SDS011;25686;51.908;10.418;2023-05-10T07:47:12;2.05;;;1.80;;
39994;SDS011;25686;51.908;10.418;2023-05-10T07:49:13;2.30;;;2.10;;
39994;SDS011;25686;51.908;10.418;2023-05-10T07:51:14;4.05;;;2.03;;
39994;SDS011;25686;51.908;10.418;2023-05-10T07:53:15;2.20;;;2.00;;
39994;SDS011;25686;51.908;10.418;2023-05-10T07:55:17;2.20;;;2.00;;
39994;SDS011;25686;51.908;10.418;2023-05-10T07:57:19;2.22;;;2.00;;
39994;SDS011;25686;51.908;10.418;2023-05-10T07:59:20;2.35;;;2.15;;
39994;SDS011;25686;51.908;10.418;2023-05-10T08:01:21;2.22;;;2.13;;
39994;SDS011;25686;51.908;10.418;2023-05-10T08:03:22;2.70;;;2.20;;
39994;SDS011;25686;51.908;10.418;2023-05-10T08:05:23;2.58;;;1.90;;
39994;SDS011;25686;51.908;10.418;2023-05-10T08:07:24;2.20;;;1.85;;
39994;SDS011;25686;51.908;10.418;2023-05-10T08:09:25;2.58;;;2.03;;
39994;SDS011;25686;51.908;10.418;2023-05-10T08:11:26;2.10;;;2.00;;
39994;SDS011;25686;51.908;10.418;2023-05-10T08:13:27;2.22;;;2.03;;
39994;SDS011;25686;51.908;10.418;2023-05-10T08:15:28;2.83;;;2.10;;
39994;SDS011;25686;51.908;10.418;2023-05-10T08:17:29;2.00;;;1.90;;
39994;SDS011;25686;51.908;10.418;2023-05-10T08:19:30;1.92;;;1.83;;
39994;SDS011;25686;51.908;10.418;2023-05-10T08:21:32;1.77;;;1.67;;
39994;SDS011;25686;51.908;10.418;2023-05-10T08:23:33;1.70;;;1.60;;
39994;SDS011;25686;51.908;10.418;2023-05-10T08:25:34;1.73;;;1.63;;
39994;SDS011;25686;51.908;10.418;2023-05-10T08:27:35;1.90;;;1.80;;
39994;SDS011;25686;51.908;10.418;2023-05-10T08:29:36;2.75;;;2.05;;
39994;SDS011;25686;51.908;10.418;2023-05-10T08:31:37;1.63;;;1.52;;
39994;SDS011;25686;51.908;10.418;2023-05-10T08:33:38;2.00;;;1.80;;
39994;SDS011;25686;51.908;10.418;2023-05-10T08:35:39;1.70;;;1.60;;
39994;SDS011;25686;51.908;10.418;2023-05-10T08:37:41;1.60;;;1.50;;
39994;SDS011;25686;51.908;10.418;2023-05-10T08:39:42;1.50;;;1.40;;
39994;SDS011;25686;51.908;10.418;2023-05-10T08:41:43;1.42;;;1.33;;
39994;SDS011;25686;51.908;10.418;2023-05-10T08:43:45;1.30;;;1.20;;
39994;SDS011;25686;51.908;10.418;2023-05-10T08:45:46;1.95;;;1.52;;
39994;SDS011;25686;51.908;10.418;2023-05-10T08:47:47;2.95;;;1.33;;
39994;SDS011;25686;51.908;10.418;2023-05-10T08:49:48;1.83;;;1.17;;
39994;SDS011;25686;51.908;10.418;2023-05-10T08:51:51;1.30;;;1.20;;
39994;SDS011;25686;51.908;10.418;2023-05-10T08:53:54;2.95;;;0.95;;
39994;SDS011;25686;51.908;10.418;2023-05-10T08:55:57;1.05;;;1.05;;
39994;SDS011;25686;51.908;10.418;2023-05-10T08:57:58;0.80;;;0.80;;
39994;SDS011;25686;51.908;10.418;2023-05-10T09:00:00;0.93;;;0.93;;
39994;SDS011;25686;51.908;10.418;2023-05-10T09:02:01;0.88;;;0.88;;
39994;SDS011;25686;51.908;10.418;2023-05-10T09:04:02;0.80;;;0.80;;
39994;SDS011;25686;51.908;10.418;2023-05-10T09:06:04;3.83;;;0.70;;
39994;SDS011;25686;51.908;10.418;2023-05-10T09:08:05;1.10;;;0.68;;
39994;SDS011;25686;51.908;10.418;2023-05-10T09:10:07;0.73;;;0.57;;
39994;SDS011;25686;51.908;10.418;2023-05-10T09:12:09;0.70;;;0.40;;
39994;SDS011;25686;51.908;10.418;2023-05-10T09:14:11;0.73;;;0.50;;
39994;SDS011;25686;51.908;10.418;2023-05-10T09:16:13;0.40;;;0.40;;
39994;SDS011;25686;51.908;10.418;2023-05-10T09:18:14;1.48;;;0.60;;
39994;SDS011;25686;51.908;10.418;2023-05-10T09:20:15;1.75;;;0.50;;
39994;SDS011;25686;51.908;10.418;2023-05-10T09:22:17;0.50;;;0.50;;
39994;SDS011;25686;51.908;10.418;2023-05-10T09:24:18;0.63;;;0.50;;
39994;SDS011;25686;51.908;10.418;2023-05-10T09:26:22;0.38;;;0.38;;
39994;SDS011;25686;51.908;10.418;2023-05-10T09:28:23;0.40;;;0.40;;
39994;SDS011;25686;51.908;10.418;2023-05-10T09:30:25;0.20;;;0.20;;
39994;SDS011;25686;51.908;10.418;2023-05-10T09:34:37;0.65;;;0.50;;
39994;SDS011;25686;51.908;10.418;2023-05-10T09:36:56;1.05;;;0.40;;
39994;SDS011;25686;51.908;10.418;2023-05-10T09:38:57;0.80;;;0.30;;
39994;SDS011;25686;51.908;10.418;2023-05-10T09:40:58;0.30;;;0.30;;
39994;SDS011;25686;51.908;10.418;2023-05-10T09:43:03;0.20;;;0.20;;
39994;SDS011;25686;51.908;10.418;2023-05-10T09:45:07;0.30;;;0.30;;
39994;SDS011;25686;51.908;10.418;2023-05-10T09:47:08;0.20;;;0.20;;
39994;SDS011;25686;51.908;10.418;2023-05-10T09:49:09;0.20;;;0.20;;
39994;SDS011;25686;51.908;10.418;2023-05-10T09:51:21;0.52;;;0.15;;
39994;SDS011;25686;51.908;10.418;2023-05-10T09:53:22;1.20;;;0.30;;
39994;SDS011;25686;51.908;10.418;2023-05-10T09:55:24;0.20;;;0.20;;
39994;SDS011;25686;51.908;10.418;2023-05-10T09:57:25;1.80;;;0.30;;
39994;SDS011;25686;51.908;10.418;2023-05-10T09:59:26;0.10;;;0.10;;
39994;SDS011;25686;51.908;10.418;2023-05-10T10:01:27;0.20;;;0.10;;
39994;SDS011;25686;51.908;10.418;2023-05-10T10:03:28;0.20;;;0.20;;
39994;SDS011;25686;51.908;10.418;2023-05-10T10:05:34;0.20;;;0.20;;
39994;SDS011;25686;51.908;10.418;2023-05-10T10:07:35;0.10;;;0.10;;
39994;SDS011;25686;51.908;10.418;2023-05-10T10:09:37;0.20;;;0.10;;
39994;SDS011;25686;51.908;10.418;2023-05-10T10:11:39;0.90;;;0.20;;
39994;SDS011;25686;51.908;10.418;2023-05-10T10:13:41;0.13;;;0.13;;
39994;SDS011;25686;51.908;10.418;2023-05-10T10:15:42;0.60;;;0.20;;
39994;SDS011;25686;51.908;10.418;2023-05-10T10:17:48;0.20;;;0.20;;
39994;SDS011;25686;51.908;10.418;2023-05-10T10:19:49;0.10;;;0.10;;
39994;SDS011;25686;51.908;10.418;2023-05-10T10:21:50;0.10;;;0.10;;
39994;SDS011;25686;51.908;10.418;2023-05-10T10:23:51;0.20;;;0.20;;
39994;SDS011;25686;51.908;10.418;2023-05-10T10:25:53;0.30;;;0.15;;
39994;SDS011;25686;51.908;10.418;2023-05-10T10:28:06;0.13;;;0.13;;
39994;SDS011;25686;51.908;10.418;2023-05-10T10:30:13;0.25;;;0.25;;
39994;SDS011;25686;51.908;10.418;2023-05-10T10:32:19;0.20;;;0.20;;
39994;SDS011;25686;51.908;10.418;2023-05-10T10:34:28;0.20;;;0.20;;
39994;SDS011;25686;51.908;10.418;2023-05-10T10:36:30;0.98;;;0.20;;
39994;SDS011;25686;51.908;10.418;2023-05-10T10:38:36;0.28;;;0.28;;
39994;SDS011;25686;51.908;10.418;2023-05-10T10:40:38;0.28;;;0.28;;
39994;SDS011;25686;51.908;10.418;2023-05-10T10:42:45;0.20;;;0.20;;
39994;SDS011;25686;51.908;10.418;2023-05-10T10:44:46;1.33;;;0.20;;
39994;SDS011;25686;51.908;10.418;2023-05-10T10:49:08;0.30;;;0.30;;
39994;SDS011;25686;51.908;10.418;2023-05-10T10:51:10;0.20;;;0.20;;
39994;SDS011;25686;51.908;10.418;2023-05-10T10:53:11;2.40;;;0.40;;
39994;SDS011;25686;51.908;10.418;2023-05-10T10:55:19;1.45;;;0.20;;
39994;SDS011;25686;51.908;10.418;2023-05-10T10:57:26;0.28;;;0.28;;
39994;SDS011;25686;51.908;10.418;2023-05-10T10:59:27;0.20;;;0.20;;
39994;SDS011;25686;51.908;10.418;2023-05-10T11:01:32;2.03;;;0.20;;
39994;SDS011;25686;51.908;10.418;2023-05-10T11:03:35;0.60;;;0.40;;
39994;SDS011;25686;51.908;10.418;2023-05-10T11:05:45;0.20;;;0.20;;
39994;SDS011;25686;51.908;10.418;2023-05-10T11:07:53;0.63;;;0.20;;
39994;SDS011;25686;51.908;10.418;2023-05-10T11:09:54;0.82;;;0.30;;
39994;SDS011;25686;51.908;10.418;2023-05-10T11:11:56;0.55;;;0.30;;
39994;SDS011;25686;51.908;10.418;2023-05-10T11:14:02;0.13;;;0.13;;
39994;SDS011;25686;51.908;10.418;2023-05-10T11:18:20;0.50;;;0.20;;
39994;SDS011;25686;51.908;10.418;2023-05-10T11:20:23;1.10;;;0.20;;
39994;SDS011;25686;51.908;10.418;2023-05-10T11:22:48;0.40;;;0.20;;
39994;SDS011;25686;51.908;10.418;2023-05-10T11:24:56;0.20;;;0.20;;
39994;SDS011;25686;51.908;10.418;2023-05-10T11:27:00;0.90;;;0.20;;
39994;SDS011;25686;51.908;10.418;2023-05-10T11:29:02;0.25;;;0.25;;
39994;SDS011;25686;51.908;10.418;2023-05-10T11:31:04;0.20;;;0.20;;
39994;SDS011;25686;51.908;10.418;2023-05-10T11:33:05;2.25;;;0.20;;
39994;SDS011;25686;51.908;10.418;2023-05-10T11:35:07;0.20;;;0.20;;
39994;SDS011;25686;51.908;10.418;2023-05-10T11:37:08;1.67;;;0.28;;
39994;SDS011;25686;51.908;10.418;2023-05-10T11:39:09;0.52;;;0.20;;
39994;SDS011;25686;51.908;10.418;2023-05-10T11:41:11;0.20;;;0.20;;
39994;SDS011;25686;51.908;10.418;2023-05-10T11:43:12;0.63;;;0.20;;
39994;SDS011;25686;51.908;10.418;2023-05-10T11:45:13;0.47;;;0.45;;
39994;SDS011;25686;51.908;10.418;2023-05-10T11:47:14;0.15;;;0.10;;
39994;SDS011;25686;51.908;10.418;2023-05-10T11:49:15;0.20;;;0.20;;
39994;SDS011;25686;51.908;10.418;2023-05-10T11:51:23;0.93;;;0.30;;
39994;SDS011;25686;51.908;10.418;2023-05-10T11:53:27;0.30;;;0.30;;
39994;SDS011;25686;51.908;10.418;2023-05-10T11:55:28;0.52;;;0.30;;
39994;SDS011;25686;51.908;10.418;2023-05-10T11:57:30;0.38;;;0.25;;
39994;SDS011;25686;51.908;10.418;2023-05-10T11:59:31;0.43;;;0.30;;
39994;SDS011;25686;51.908;10.418;2023-05-10T12:01:32;2.33;;;0.45;;
39994;SDS011;25686;51.908;10.418;2023-05-10T12:03:33;0.30;;;0.30;;
39994;SDS011;25686;51.908;10.418;2023-05-10T12:05:34;0.20;;;0.20;;
39994;SDS011;25686;51.908;10.418;2023-05-10T12:07:36;1.35;;;0.40;;
39994;SDS011;25686;51.908;10.418;2023-05-10T12:09:41;0.30;;;0.20;;
39994;SDS011;25686;51.908;10.418;2023-05-10T12:11:42;0.80;;;0.35;;
39994;SDS011;25686;51.908;10.418;2023-05-10T12:13:43;0.43;;;0.28;;
39994;SDS011;25686;51.908;10.418;2023-05-10T12:15:48;0.30;;;0.30;;
39994;SDS011;25686;51.908;10.418;2023-05-10T12:17:49;0.32;;;0.25;;
39994;SDS011;25686;51.908;10.418;2023-05-10T12:19:51;1.02;;;0.30;;
39994;SDS011;25686;51.908;10.418;2023-05-10T12:21:52;0.73;;;0.40;;
39994;SDS011;25686;51.908;10.418;2023-05-10T12:23:53;1.45;;;0.40;;
39994;SDS011;25686;51.908;10.418;2023-05-10T12:26:01;1.05;;;0.68;;
39994;SDS011;25686;51.908;10.418;2023-05-10T12:28:03;1.60;;;0.20;;
39994;SDS011;25686;51.908;10.418;2023-05-10T12:30:04;1.95;;;0.50;;